To NAV CANADA Home Page Login to a new session Search on AWWS site Disclaimer Vers la page française équivalente Tips FAQ What's new on the site To the Forecasts and Observations / NOTAM section To "File a Flight Plan" website Publications and other links Update of the User's profile FIC Telephone Numbers My Weather Data Folder Route Weather Data Regional Weather Data Local Weather Data To the Forecasts and Observations / NOTAM section
Request Generated 10/21/2018 at 05:51:39 UTC . Weather information available at that time is displayed.

METAR/TAF

BIG TROUT LAKE/ON    (show WxCam)

SPECI CYTL 210549Z AUTO 25006KT 9SM BKN013 M05/M05 A3004 RMK SLP190=
SPECI CYTL 210546Z AUTO 25005KT 9SM SCT013 M05/M05 A3004 RMK SLP191=
SPECI CYTL 210533Z AUTO 25005KT 9SM BKN013 M05/M05 A3005 RMK SLP193=
SPECI CYTL 210520Z AUTO 25004KT 9SM SCT013 M07/M07 A3005 RMK SLP195=
METAR CYTL 210500Z AUTO 00000KT 9SM BKN015 M08/M08 A3005 RMK SLP196=
SPECI CYTL 210433Z AUTO VRB02KT 9SM SCT021 M07/M07 A3006 RMK SLP199=
SPECI CYTL 210418Z AUTO VRB02KT 9SM SCT016 BKN021 M07/M07 A3006 RMK SLP200=
SPECI CYTL 210412Z AUTO VRB02KT 9SM SCT016 M06/M06 A3007 RMK SLP201=
METAR CYTL 210400Z AUTO 01002KT 9SM BKN018 M06/M06 A3007 RMK SLP203=
METAR CYTL 210300Z AUTO 31006KT 9SM OVC020 M04/M06 A3009 RMK SLP210=

TAF AMD CYTL 210415Z 2104/2114 VRB03KT P6SM SCT015 TEMPO 2104/2111
BKN015
BECMG 2105/2107 24010KT
FM211100 21010KT P6SM BKN150
FM211300 20012KT 6SM -SN OVC030
RMK FCST BASED ON AUTO OBS. NXT FCST BY 210800Z=
Your time UTC time
Weather data provided by Environment Canada and NAV CANADA